createdAt,value
2023-04-15T00:00:21.947Z,1009.374
2023-04-15T00:00:51.948Z,1009.39
2023-04-15T00:01:21.942Z,1009.395
2023-04-15T00:01:51.998Z,1009.408
2023-04-15T00:02:22.191Z,1009.402
2023-04-15T00:02:52.092Z,1009.407
2023-04-15T00:03:22.183Z,1009.426
2023-04-15T00:03:52.002Z,1009.439
2023-04-15T00:04:22.032Z,1009.451
2023-04-15T00:04:52.029Z,1009.46
2023-04-15T00:05:21.942Z,1009.471
2023-04-15T00:05:51.970Z,1009.472
2023-04-15T00:06:21.942Z,1009.463
2023-04-15T00:06:51.951Z,1009.472
2023-04-15T00:07:21.950Z,1009.471
2023-04-15T00:07:51.953Z,1009.481
2023-04-15T00:08:21.946Z,1009.482
2023-04-15T00:08:51.946Z,1009.487
2023-04-15T00:09:21.947Z,1009.5
2023-04-15T00:09:51.942Z,1009.509
2023-04-15T00:10:21.953Z,1009.498
2023-04-15T00:10:51.943Z,1009.515
2023-04-15T00:11:21.946Z,1009.501
2023-04-15T00:11:51.952Z,1009.494
2023-04-15T00:12:21.949Z,1009.508
2023-04-15T00:12:51.954Z,1009.492
2023-04-15T00:13:21.965Z,1009.498
2023-04-15T00:13:51.948Z,1009.515
2023-04-15T00:14:21.950Z,1009.516
2023-04-15T00:14:51.950Z,1009.527
2023-04-15T00:15:21.954Z,1009.534
2023-04-15T00:15:51.958Z,1009.51
2023-04-15T00:16:21.992Z,1009.509
2023-04-15T00:16:51.999Z,1009.526
2023-04-15T00:17:21.967Z,1009.5
2023-04-15T00:17:52.024Z,1009.511
2023-04-15T00:18:21.947Z,1009.508
2023-04-15T00:18:51.946Z,1009.519
2023-04-15T00:19:21.945Z,1009.526
2023-04-15T00:19:51.946Z,1009.547
2023-04-15T00:20:21.951Z,1009.525
2023-04-15T00:20:51.942Z,1009.533
2023-04-15T00:21:21.948Z,1009.536
2023-04-15T00:21:51.944Z,1009.551
2023-04-15T00:22:21.949Z,1009.574
2023-04-15T00:22:51.956Z,1009.589
2023-04-15T00:23:21.958Z,1009.577
2023-04-15T00:23:51.956Z,1009.608
2023-04-15T00:24:21.956Z,1009.603
2023-04-15T00:24:51.943Z,1009.612
2023-04-15T00:25:21.952Z,1009.618
2023-04-15T00:25:51.963Z,1009.615
2023-04-15T00:26:21.953Z,1009.624
2023-04-15T00:26:51.947Z,1009.618
2023-04-15T00:27:21.951Z,1009.606
2023-04-15T00:27:51.949Z,1009.618
2023-04-15T00:28:21.964Z,1009.629
2023-04-15T00:28:51.945Z,1009.624
2023-04-15T00:29:21.973Z,1009.621
2023-04-15T00:29:51.962Z,1009.63
2023-04-15T00:30:21.968Z,1009.622
2023-04-15T00:30:52.012Z,1009.651
2023-04-15T00:31:22.138Z,1009.633
2023-04-15T00:31:51.944Z,1009.636
2023-04-15T00:32:21.982Z,1009.655
2023-04-15T00:32:52.009Z,1009.648
2023-04-15T00:33:21.954Z,1009.641
2023-04-15T00:33:51.948Z,1009.661
2023-04-15T00:34:21.953Z,1009.677
2023-04-15T00:34:51.948Z,1009.697
2023-04-15T00:35:21.958Z,1009.695
2023-04-15T00:35:51.952Z,1009.715
2023-04-15T00:36:21.954Z,1009.745
2023-04-15T00:36:51.953Z,1009.762
2023-04-15T00:37:21.951Z,1009.757
2023-04-15T00:37:51.950Z,1009.775
2023-04-15T00:38:21.954Z,1009.78
2023-04-15T00:38:51.975Z,1009.791
2023-04-15T00:39:21.950Z,1009.82
2023-04-15T00:39:51.960Z,1009.821
2023-04-15T00:40:21.966Z,1009.816
2023-04-15T00:40:51.956Z,1009.82
2023-04-15T00:41:21.954Z,1009.847
2023-04-15T00:41:51.956Z,1009.875
2023-04-15T00:42:21.983Z,1009.874
2023-04-15T00:42:51.954Z,1009.872
2023-04-15T00:43:21.958Z,1009.883
2023-04-15T00:43:51.956Z,1009.907
2023-04-15T00:44:21.956Z,1009.908
2023-04-15T00:44:51.957Z,1009.917
2023-04-15T00:45:21.962Z,1009.941
2023-04-15T00:45:51.988Z,1009.938
2023-04-15T00:46:21.992Z,1009.946
2023-04-15T00:46:51.952Z,1009.962
2023-04-15T00:47:21.951Z,1009.969
2023-04-15T00:47:52.043Z,1009.984
2023-04-15T00:48:21.951Z,1009.996
2023-04-15T00:48:51.954Z,1010.006
2023-04-15T00:49:21.959Z,1010.005
2023-04-15T00:49:51.953Z,1010.001
2023-04-15T00:50:21.952Z,1010.001
2023-04-15T00:50:51.966Z,1010.024
2023-04-15T00:51:21.955Z,1010.031
2023-04-15T00:51:51.953Z,1010.03
2023-04-15T00:52:21.948Z,1010.038
2023-04-15T00:52:51.964Z,1010.035
2023-04-15T00:53:21.964Z,1010.039
2023-04-15T00:53:51.946Z,1010.034
2023-04-15T00:54:21.951Z,1010.073
2023-04-15T00:54:51.953Z,1010.071
2023-04-15T00:55:21.958Z,1010.088
2023-04-15T00:55:51.949Z,1010.103
2023-04-15T00:56:21.954Z,1010.128
2023-04-15T00:56:51.953Z,1010.14
2023-04-15T00:57:21.950Z,1010.145
2023-04-15T00:57:51.954Z,1010.16
2023-04-15T00:58:21.961Z,1010.15
2023-04-15T00:58:51.952Z,1010.139
2023-04-15T00:59:21.947Z,1010.143
2023-04-15T00:59:51.963Z,1010.14
2023-04-15T01:00:21.953Z,1010.153
2023-04-15T01:00:51.953Z,1010.167
2023-04-15T01:01:21.990Z,1010.18
2023-04-15T01:01:52.078Z,1010.192
2023-04-15T01:02:22.035Z,1010.188
2023-04-15T01:02:52.165Z,1010.188
2023-04-15T01:03:22.210Z,1010.212
2023-04-15T01:03:52.130Z,1010.189
2023-04-15T01:04:22.002Z,1010.204
2023-04-15T01:04:51.950Z,1010.189
2023-04-15T01:05:21.948Z,1010.178
2023-04-15T01:05:51.999Z,1010.201
2023-04-15T01:06:21.951Z,1010.207
2023-04-15T01:06:52.015Z,1010.226
2023-04-15T01:07:21.949Z,1010.241
2023-04-15T01:07:51.981Z,1010.246
2023-04-15T01:08:21.946Z,1010.249
2023-04-15T01:08:51.979Z,1010.261
2023-04-15T01:09:21.967Z,1010.281
2023-04-15T01:09:52.030Z,1010.286
2023-04-15T01:10:21.949Z,1010.283
2023-04-15T01:10:51.995Z,1010.296
2023-04-15T01:11:21.949Z,1010.302
2023-04-15T01:11:52.003Z,1010.323
2023-04-15T01:12:21.954Z,1010.31
2023-04-15T01:12:51.962Z,1010.332
2023-04-15T01:13:21.952Z,1010.349
2023-04-15T01:13:52.063Z,1010.35
2023-04-15T01:14:21.959Z,1010.363
2023-04-15T01:14:52.023Z,1010.36
2023-04-15T01:15:21.955Z,1010.346
2023-04-15T01:15:52.014Z,1010.343
2023-04-15T01:16:22.007Z,1010.352
2023-04-15T01:16:51.946Z,1010.374
2023-04-15T01:17:22.002Z,1010.378
2023-04-15T01:17:51.988Z,1010.37
2023-04-15T01:18:21.953Z,1010.372
2023-04-15T01:18:51.956Z,1010.395
2023-04-15T01:19:21.946Z,1010.4
2023-04-15T01:19:51.950Z,1010.405
2023-04-15T01:20:21.953Z,1010.412
2023-04-15T01:20:51.954Z,1010.416
2023-04-15T01:21:21.974Z,1010.417
2023-04-15T01:21:51.973Z,1010.418
2023-04-15T01:22:21.951Z,1010.416
2023-04-15T01:22:51.964Z,1010.421
2023-04-15T01:23:21.948Z,1010.433
2023-04-15T01:23:51.951Z,1010.425
2023-04-15T01:24:21.952Z,1010.416
2023-04-15T01:24:51.951Z,1010.416
2023-04-15T01:25:21.949Z,1010.396
2023-04-15T01:25:51.954Z,1010.4
2023-04-15T01:26:21.952Z,1010.427
2023-04-15T01:26:51.952Z,1010.431
2023-04-15T01:27:21.961Z,1010.433
2023-04-15T01:27:51.959Z,1010.428
2023-04-15T01:28:21.950Z,1010.448
2023-04-15T01:28:51.949Z,1010.457
2023-04-15T01:29:21.954Z,1010.475
2023-04-15T01:29:51.951Z,1010.473
2023-04-15T01:30:21.954Z,1010.492
2023-04-15T01:30:51.961Z,1010.529
2023-04-15T01:31:22.000Z,1010.535
2023-04-15T01:31:52.029Z,1010.514
2023-04-15T01:32:21.979Z,1010.519
2023-04-15T01:32:51.980Z,1010.534
2023-04-15T01:33:21.957Z,1010.552
2023-04-15T01:33:51.966Z,1010.587
2023-04-15T01:34:21.987Z,1010.604
2023-04-15T01:34:51.964Z,1010.618
2023-04-15T01:35:21.952Z,1010.623
2023-04-15T01:35:51.952Z,1010.638
2023-04-15T01:36:21.956Z,1010.637
2023-04-15T01:36:51.953Z,1010.665
2023-04-15T01:37:21.961Z,1010.66
2023-04-15T01:37:51.956Z,1010.666
2023-04-15T01:38:21.971Z,1010.675
2023-04-15T01:38:51.953Z,1010.684
2023-04-15T01:39:21.956Z,1010.719
2023-04-15T01:39:51.952Z,1010.714
2023-04-15T01:40:21.965Z,1010.724
2023-04-15T01:40:51.949Z,1010.718
2023-04-15T01:41:21.959Z,1010.716
2023-04-15T01:41:51.964Z,1010.717
2023-04-15T01:42:21.960Z,1010.719
2023-04-15T01:42:51.961Z,1010.737
2023-04-15T01:43:21.966Z,1010.737
2023-04-15T01:43:51.954Z,1010.739
2023-04-15T01:44:21.956Z,1010.755
2023-04-15T01:44:51.988Z,1010.782
2023-04-15T01:45:21.957Z,1010.786
2023-04-15T01:45:51.959Z,1010.807
2023-04-15T01:46:22.089Z,1010.807
2023-04-15T01:46:52.063Z,1010.802
2023-04-15T01:47:21.971Z,1010.821
2023-04-15T01:47:51.984Z,1010.833
2023-04-15T01:48:21.959Z,1010.838
2023-04-15T01:48:51.956Z,1010.856
2023-04-15T01:49:21.961Z,1010.878
2023-04-15T01:49:51.964Z,1010.898
2023-04-15T01:50:21.974Z,1010.905
2023-04-15T01:50:51.955Z,1010.905
2023-04-15T01:51:21.960Z,1010.883
2023-04-15T01:51:51.969Z,1010.909
2023-04-15T01:52:21.963Z,1010.889
2023-04-15T01:52:51.957Z,1010.898
2023-04-15T01:53:21.967Z,1010.908
2023-04-15T01:53:51.983Z,1010.91
2023-04-15T01:54:21.966Z,1010.923
2023-04-15T01:54:51.963Z,1010.914
2023-04-15T01:55:21.964Z,1010.928
2023-04-15T01:55:51.959Z,1010.936
2023-04-15T01:56:21.964Z,1010.933
2023-04-15T01:56:51.968Z,1010.937
2023-04-15T01:57:22.022Z,1010.934
2023-04-15T01:57:51.960Z,1010.934
2023-04-15T01:58:21.989Z,1010.97
2023-04-15T01:58:51.956Z,1010.983
2023-04-15T01:59:21.959Z,1010.994
2023-04-15T01:59:51.966Z,1011.002
2023-04-15T02:00:21.959Z,1011.02
2023-04-15T02:00:51.993Z,1011.008
2023-04-15T02:01:22.017Z,1010.997
2023-04-15T02:01:51.976Z,1010.999
2023-04-15T02:02:22.068Z,1011.003
2023-04-15T02:02:51.999Z,1011.009
2023-04-15T02:03:22.171Z,1011.034
2023-04-15T02:03:51.999Z,1011.031
2023-04-15T02:04:21.973Z,1011.046
2023-04-15T02:04:51.960Z,1011.068
2023-04-15T02:05:21.956Z,1011.08
2023-04-15T02:05:51.960Z,1011.094
2023-04-15T02:06:21.959Z,1011.093
2023-04-15T02:06:51.965Z,1011.115
2023-04-15T02:07:21.957Z,1011.123
2023-04-15T02:07:51.958Z,1011.127
2023-04-15T02:08:21.978Z,1011.153
2023-04-15T02:08:51.960Z,1011.137
2023-04-15T02:09:21.959Z,1011.142
2023-04-15T02:09:51.969Z,1011.12
2023-04-15T02:10:21.966Z,1011.126
2023-04-15T02:10:51.964Z,1011.137
2023-04-15T02:11:21.969Z,1011.158
2023-04-15T02:11:51.967Z,1011.135
2023-04-15T02:12:21.965Z,1011.13
2023-04-15T02:12:51.983Z,1011.138
2023-04-15T02:13:21.969Z,1011.156
2023-04-15T02:13:51.960Z,1011.173
2023-04-15T02:14:21.955Z,1011.187
2023-04-15T02:14:51.965Z,1011.187
2023-04-15T02:15:21.964Z,1011.211
2023-04-15T02:15:51.958Z,1011.216
2023-04-15T02:16:22.002Z,1011.216
2023-04-15T02:16:52.034Z,1011.236
2023-04-15T02:17:22.010Z,1011.243
2023-04-15T02:17:51.980Z,1011.258
2023-04-15T02:18:21.962Z,1011.237
2023-04-15T02:18:51.971Z,1011.252
2023-04-15T02:19:21.960Z,1011.265
2023-04-15T02:19:51.960Z,1011.288
2023-04-15T02:20:21.959Z,1011.293
2023-04-15T02:20:51.966Z,1011.301
2023-04-15T02:21:21.963Z,1011.321
2023-04-15T02:21:51.963Z,1011.338
2023-04-15T02:22:21.970Z,1011.346
2023-04-15T02:22:51.958Z,1011.372
2023-04-15T02:23:21.957Z,1011.377
2023-04-15T02:23:53.960Z,1011.391
2023-04-15T02:24:21.958Z,1011.401
2023-04-15T02:24:51.974Z,1011.417
2023-04-15T02:25:21.969Z,1011.421
2023-04-15T02:25:53.522Z,1011.416
2023-04-15T02:26:21.971Z,1011.418
2023-04-15T02:26:51.975Z,1011.444
2023-04-15T02:27:21.964Z,1011.426
2023-04-15T02:27:51.960Z,1011.439
2023-04-15T02:28:22.034Z,1011.444
2023-04-15T02:28:51.960Z,1011.442
2023-04-15T02:29:21.974Z,1011.432
2023-04-15T02:29:51.966Z,1011.443
2023-04-15T02:30:21.955Z,1011.444
2023-04-15T02:30:51.959Z,1011.44
2023-04-15T02:31:22.037Z,1011.463
2023-04-15T02:31:52.001Z,1011.472
2023-04-15T02:32:22.049Z,1011.474
2023-04-15T02:32:52.014Z,1011.471
2023-04-15T02:33:21.962Z,1011.472
2023-04-15T02:33:51.962Z,1011.461
2023-04-15T02:34:21.961Z,1011.456
2023-04-15T02:34:51.995Z,1011.467
2023-04-15T02:35:21.972Z,1011.47
2023-04-15T02:35:51.962Z,1011.476
2023-04-15T02:36:21.968Z,1011.479
2023-04-15T02:36:51.971Z,1011.484
2023-04-15T02:37:21.962Z,1011.486
2023-04-15T02:37:51.960Z,1011.481
2023-04-15T02:38:21.967Z,1011.514
2023-04-15T02:38:51.980Z,1011.519
2023-04-15T02:39:21.969Z,1011.518
2023-04-15T02:39:51.975Z,1011.508
2023-04-15T02:40:21.997Z,1011.508
2023-04-15T02:40:51.974Z,1011.518
2023-04-15T02:41:21.976Z,1011.544
2023-04-15T02:41:51.968Z,1011.541
2023-04-15T02:42:21.968Z,1011.55
2023-04-15T02:42:51.966Z,1011.55
2023-04-15T02:43:21.970Z,1011.524
2023-04-15T02:43:51.963Z,1011.515
2023-04-15T02:44:21.965Z,1011.55
2023-04-15T02:44:51.962Z,1011.561
2023-04-15T02:45:21.966Z,1011.571
2023-04-15T02:45:52.015Z,1011.573
2023-04-15T02:46:21.995Z,1011.583
2023-04-15T02:46:51.962Z,1011.582
2023-04-15T02:47:21.979Z,1011.591
2023-04-15T02:47:51.977Z,1011.606
2023-04-15T02:48:21.972Z,1011.614
2023-04-15T02:48:51.962Z,1011.621
2023-04-15T02:49:21.967Z,1011.622
2023-04-15T02:49:51.963Z,1011.625
2023-04-15T02:50:21.971Z,1011.66
2023-04-15T02:50:52.103Z,1011.67
2023-04-15T02:51:21.976Z,1011.672
2023-04-15T02:51:51.970Z,1011.673
2023-04-15T02:52:21.978Z,1011.692
2023-04-15T02:52:51.962Z,1011.688
2023-04-15T02:53:21.993Z,1011.686
2023-04-15T02:53:51.969Z,1011.664
2023-04-15T02:54:21.968Z,1011.667
2023-04-15T02:54:51.970Z,1011.669
2023-04-15T02:55:21.979Z,1011.684
2023-04-15T02:55:51.969Z,1011.693
2023-04-15T02:56:21.966Z,1011.686
2023-04-15T02:56:51.981Z,1011.722
2023-04-15T02:57:21.962Z,1011.73
2023-04-15T02:57:51.958Z,1011.756
2023-04-15T02:58:21.963Z,1011.768
2023-04-15T02:58:51.964Z,1011.775
2023-04-15T02:59:21.970Z,1011.776
2023-04-15T02:59:51.964Z,1011.777
2023-04-15T03:00:21.967Z,1011.796
2023-04-15T03:00:51.966Z,1011.778
2023-04-15T03:01:22.011Z,1011.787
2023-04-15T03:01:52.025Z,1011.785
2023-04-15T03:02:22.060Z,1011.814
2023-04-15T03:02:52.189Z,1011.823
2023-04-15T03:03:22.060Z,1011.817
2023-04-15T03:03:52.055Z,1011.823
2023-04-15T03:04:22.042Z,1011.836
2023-04-15T03:04:51.980Z,1011.822
2023-04-15T03:05:21.967Z,1011.809
2023-04-15T03:05:51.967Z,1011.814
2023-04-15T03:06:21.968Z,1011.842
2023-04-15T03:06:51.961Z,1011.826
2023-04-15T03:07:21.981Z,1011.833
2023-04-15T03:07:51.960Z,1011.804
2023-04-15T03:08:21.969Z,1011.835
2023-04-15T03:08:51.964Z,1011.846
2023-04-15T03:09:21.967Z,1011.842
2023-04-15T03:09:51.964Z,1011.861
2023-04-15T03:10:21.981Z,1011.86
2023-04-15T03:10:51.962Z,1011.884
2023-04-15T03:11:21.959Z,1011.891
2023-04-15T03:11:51.958Z,1011.889
2023-04-15T03:12:21.961Z,1011.916
2023-04-15T03:12:51.963Z,1011.938
2023-04-15T03:13:21.962Z,1011.951
2023-04-15T03:13:51.964Z,1011.944
2023-04-15T03:14:21.965Z,1011.951
2023-04-15T03:14:51.963Z,1011.971
2023-04-15T03:15:21.957Z,1011.99
2023-04-15T03:15:52.024Z,1011.96
2023-04-15T03:16:22.088Z,1011.976
2023-04-15T03:16:51.996Z,1011.992
2023-04-15T03:17:21.975Z,1012.006
2023-04-15T03:17:51.998Z,1011.999
2023-04-15T03:18:21.962Z,1012.019
2023-04-15T03:18:51.965Z,1012.03
2023-04-15T03:19:21.956Z,1012.037
2023-04-15T03:19:51.960Z,1012.025
2023-04-15T03:20:22.028Z,1012.033
2023-04-15T03:20:51.976Z,1012.031
2023-04-15T03:21:21.957Z,1012.051
2023-04-15T03:21:51.960Z,1012.061
2023-04-15T03:22:21.960Z,1012.076
2023-04-15T03:22:51.962Z,1012.077
2023-04-15T03:23:21.962Z,1012.086
2023-04-15T03:23:51.968Z,1012.103
2023-04-15T03:24:21.966Z,1012.099
2023-04-15T03:24:51.972Z,1012.092
2023-04-15T03:25:21.974Z,1012.088
2023-04-15T03:25:51.963Z,1012.103
2023-04-15T03:26:21.962Z,1012.097
2023-04-15T03:26:51.969Z,1012.097
2023-04-15T03:27:21.965Z,1012.086
2023-04-15T03:27:51.967Z,1012.081
2023-04-15T03:28:21.965Z,1012.096
2023-04-15T03:28:51.968Z,1012.09
2023-04-15T03:29:21.961Z,1012.09
2023-04-15T03:29:51.970Z,1012.095
2023-04-15T03:30:21.976Z,1012.105
2023-04-15T03:30:52.030Z,1012.101
2023-04-15T03:31:22.050Z,1012.121
2023-04-15T03:31:51.966Z,1012.136
2023-04-15T03:32:22.040Z,1012.124
2023-04-15T03:32:52.024Z,1012.143
2023-04-15T03:33:21.965Z,1012.149
2023-04-15T03:33:51.971Z,1012.151
2023-04-15T03:34:21.959Z,1012.186
2023-04-15T03:34:51.969Z,1012.189
2023-04-15T03:35:21.976Z,1012.17
2023-04-15T03:35:51.974Z,1012.15
2023-04-15T03:36:21.958Z,1012.164
2023-04-15T03:36:51.960Z,1012.19
2023-04-15T03:37:21.966Z,1012.196
2023-04-15T03:37:51.965Z,1012.222
2023-04-15T03:38:21.977Z,1012.199
2023-04-15T03:38:51.975Z,1012.217
2023-04-15T03:39:21.964Z,1012.211
2023-04-15T03:39:51.972Z,1012.228
2023-04-15T03:40:21.963Z,1012.237
2023-04-15T03:40:51.974Z,1012.25
2023-04-15T03:41:21.962Z,1012.252
2023-04-15T03:41:51.961Z,1012.262
2023-04-15T03:42:21.969Z,1012.267
2023-04-15T03:42:51.973Z,1012.278
2023-04-15T03:43:21.961Z,1012.253
2023-04-15T03:43:51.965Z,1012.26
2023-04-15T03:44:21.960Z,1012.266
2023-04-15T03:44:51.962Z,1012.273
2023-04-15T03:45:21.959Z,1012.268
2023-04-15T03:45:51.971Z,1012.269
2023-04-15T03:46:21.995Z,1012.273
2023-04-15T03:46:52.062Z,1012.274
2023-04-15T03:47:22.004Z,1012.282
2023-04-15T03:47:51.977Z,1012.284
2023-04-15T03:48:21.996Z,1012.295
2023-04-15T03:48:51.971Z,1012.268
2023-04-15T03:49:21.972Z,1012.287
2023-04-15T03:49:51.969Z,1012.307
2023-04-15T03:50:21.974Z,1012.315
2023-04-15T03:50:51.962Z,1012.318
2023-04-15T03:51:21.968Z,1012.304
2023-04-15T03:51:51.964Z,1012.317
2023-04-15T03:52:21.974Z,1012.299
2023-04-15T03:52:51.977Z,1012.311
2023-04-15T03:53:21.960Z,1012.338
2023-04-15T03:53:51.964Z,1012.353
2023-04-15T03:54:21.973Z,1012.352
2023-04-15T03:54:51.963Z,1012.365
2023-04-15T03:55:21.972Z,1012.392
2023-04-15T03:55:51.962Z,1012.385
2023-04-15T03:56:21.971Z,1012.388
2023-04-15T03:56:51.964Z,1012.405
2023-04-15T03:57:21.972Z,1012.441
2023-04-15T03:57:51.967Z,1012.433
2023-04-15T03:58:21.975Z,1012.432
2023-04-15T03:58:51.968Z,1012.427
2023-04-15T03:59:21.974Z,1012.445
2023-04-15T03:59:51.971Z,1012.45
2023-04-15T04:00:21.968Z,1012.467
2023-04-15T04:00:51.966Z,1012.471
2023-04-15T04:01:21.968Z,1012.476
2023-04-15T04:01:52.038Z,1012.474
2023-04-15T04:02:22.119Z,1012.483
2023-04-15T04:02:52.149Z,1012.477
2023-04-15T04:03:22.184Z,1012.467
2023-04-15T04:03:52.130Z,1012.465
2023-04-15T04:04:22.087Z,1012.47
2023-04-15T04:04:52.064Z,1012.478
2023-04-15T04:05:21.979Z,1012.48
2023-04-15T04:05:51.962Z,1012.497
2023-04-15T04:06:21.973Z,1012.494
2023-04-15T04:06:51.974Z,1012.523
2023-04-15T04:07:21.981Z,1012.516
2023-04-15T04:07:51.980Z,1012.523
2023-04-15T04:08:21.972Z,1012.509
2023-04-15T04:08:51.977Z,1012.506
2023-04-15T04:09:21.968Z,1012.484
2023-04-15T04:09:51.967Z,1012.467
2023-04-15T04:10:21.983Z,1012.454
2023-04-15T04:10:51.963Z,1012.416
2023-04-15T04:11:21.986Z,1012.367
2023-04-15T04:11:51.971Z,1012.329
2023-04-15T04:12:21.965Z,1012.317
2023-04-15T04:12:51.968Z,1012.305
2023-04-15T04:13:21.972Z,1012.306
2023-04-15T04:13:51.976Z,1012.297
2023-04-15T04:14:21.970Z,1012.288
2023-04-15T04:14:51.969Z,1012.289
2023-04-15T04:15:21.969Z,1012.264
2023-04-15T04:15:52.005Z,1012.271
2023-04-15T04:16:22.094Z,1012.268
2023-04-15T04:16:52.010Z,1012.269
2023-04-15T04:17:21.996Z,1012.265
2023-04-15T04:17:52.003Z,1012.249
2023-04-15T04:18:21.988Z,1012.259
2023-04-15T04:18:51.973Z,1012.232
2023-04-15T04:19:21.979Z,1012.268
2023-04-15T04:19:51.981Z,1012.299
2023-04-15T04:20:21.971Z,1012.301
2023-04-15T04:20:51.976Z,1012.309
2023-04-15T04:21:21.976Z,1012.315
2023-04-15T04:21:51.978Z,1012.308
2023-04-15T04:22:21.966Z,1012.307
2023-04-15T04:22:51.986Z,1012.299
2023-04-15T04:23:21.969Z,1012.287
2023-04-15T04:23:51.967Z,1012.273
2023-04-15T04:24:21.977Z,1012.275
2023-04-15T04:24:51.970Z,1012.254
2023-04-15T04:25:21.967Z,1012.258
2023-04-15T04:25:51.964Z,1012.263
2023-04-15T04:26:21.967Z,1012.256
2023-04-15T04:26:51.971Z,1012.259
2023-04-15T04:27:21.963Z,1012.238
2023-04-15T04:27:51.970Z,1012.251
2023-04-15T04:28:21.963Z,1012.276
2023-04-15T04:28:51.972Z,1012.278
2023-04-15T04:29:21.974Z,1012.273
2023-04-15T04:29:51.973Z,1012.269
2023-04-15T04:30:21.975Z,1012.235
2023-04-15T04:30:51.999Z,1012.251
2023-04-15T04:31:22.024Z,1012.258
2023-04-15T04:31:52.049Z,1012.249
2023-04-15T04:32:21.991Z,1012.284
2023-04-15T04:32:52.009Z,1012.293
2023-04-15T04:33:21.971Z,1012.316
2023-04-15T04:33:51.969Z,1012.345
2023-04-15T04:34:21.965Z,1012.426
2023-04-15T04:34:51.976Z,1012.488
2023-04-15T04:35:21.970Z,1012.59
2023-04-15T04:35:51.969Z,1012.648
2023-04-15T04:36:21.986Z,1012.686
2023-04-15T04:36:51.987Z,1012.696
2023-04-15T04:37:21.964Z,1012.717
2023-04-15T04:37:51.976Z,1012.732
2023-04-15T04:38:21.978Z,1012.762
2023-04-15T04:38:51.977Z,1012.782
2023-04-15T04:39:21.965Z,1012.795
2023-04-15T04:39:51.966Z,1012.792
2023-04-15T04:40:21.971Z,1012.811
2023-04-15T04:40:51.972Z,1012.815
2023-04-15T04:41:21.968Z,1012.83
2023-04-15T04:41:51.970Z,1012.834
2023-04-15T04:42:21.964Z,1012.816
2023-04-15T04:42:51.974Z,1012.797
2023-04-15T04:43:21.972Z,1012.803
2023-04-15T04:43:51.974Z,1012.763
2023-04-15T04:44:21.981Z,1012.733
2023-04-15T04:44:51.965Z,1012.688
2023-04-15T04:45:21.969Z,1012.646
2023-04-15T04:45:52.019Z,1012.597
2023-04-15T04:46:22.008Z,1012.575
2023-04-15T04:46:51.977Z,1012.558
2023-04-15T04:47:21.976Z,1012.545
2023-04-15T04:47:52.017Z,1012.52
2023-04-15T04:48:21.968Z,1012.5
2023-04-15T04:48:51.964Z,1012.481
2023-04-15T04:49:21.971Z,1012.481
2023-04-15T04:49:51.968Z,1012.457
2023-04-15T04:50:21.991Z,1012.466
2023-04-15T04:50:51.970Z,1012.468
2023-04-15T04:51:21.974Z,1012.465
2023-04-15T04:51:51.974Z,1012.458
2023-04-15T04:52:21.975Z,1012.45
2023-04-15T04:52:51.971Z,1012.432
2023-04-15T04:53:21.968Z,1012.427
2023-04-15T04:53:51.970Z,1012.427
2023-04-15T04:54:21.972Z,1012.422
2023-04-15T04:54:51.981Z,1012.426
2023-04-15T04:55:21.971Z,1012.427
2023-04-15T04:55:51.969Z,1012.429
2023-04-15T04:56:21.973Z,1012.438
2023-04-15T04:56:51.969Z,1012.453
2023-04-15T04:57:21.972Z,1012.447
2023-04-15T04:57:51.984Z,1012.463
2023-04-15T04:58:22.004Z,1012.506
2023-04-15T04:58:51.972Z,1012.543
2023-04-15T04:59:21.995Z,1012.579
2023-04-15T04:59:51.996Z,1012.617
2023-04-15T05:00:21.984Z,1012.616
2023-04-15T05:00:52.027Z,1012.621
2023-04-15T05:01:22.058Z,1012.595
2023-04-15T05:01:51.981Z,1012.63
2023-04-15T05:02:22.113Z,1012.626
2023-04-15T05:02:52.062Z,1012.622
2023-04-15T05:03:22.129Z,1012.614
2023-04-15T05:03:52.130Z,1012.614
2023-04-15T05:04:21.971Z,1012.631
2023-04-15T05:04:51.972Z,1012.639
2023-04-15T05:05:21.975Z,1012.656
2023-04-15T05:05:51.980Z,1012.652
2023-04-15T05:06:21.984Z,1012.672
2023-04-15T05:06:51.977Z,1012.697
2023-04-15T05:07:21.979Z,1012.713
2023-04-15T05:07:51.978Z,1012.721
2023-04-15T05:08:21.977Z,1012.753
2023-04-15T05:08:51.978Z,1012.743
2023-04-15T05:09:21.981Z,1012.726
2023-04-15T05:09:51.972Z,1012.723
2023-04-15T05:10:21.980Z,1012.724
2023-04-15T05:10:51.980Z,1012.745
2023-04-15T05:11:21.978Z,1012.741
2023-04-15T05:11:51.980Z,1012.726
2023-04-15T05:12:21.980Z,1012.714
2023-04-15T05:12:51.975Z,1012.725
2023-04-15T05:13:21.978Z,1012.706
2023-04-15T05:13:51.974Z,1012.679
2023-04-15T05:14:23.322Z,1012.666
2023-04-15T05:14:51.984Z,1012.649
2023-04-15T05:15:22.004Z,1012.648
2023-04-15T05:15:51.998Z,1012.636
2023-04-15T05:16:22.012Z,1012.639
2023-04-15T05:16:51.972Z,1012.66
2023-04-15T05:17:22.010Z,1012.662
2023-04-15T05:17:52.022Z,1012.677
2023-04-15T05:18:21.983Z,1012.704
2023-04-15T05:18:52.019Z,1012.698
2023-04-15T05:19:21.979Z,1012.664
2023-04-15T05:19:51.978Z,1012.71
2023-04-15T05:20:22.005Z,1012.731
2023-04-15T05:20:51.991Z,1012.705
2023-04-15T05:21:21.986Z,1012.696
2023-04-15T05:21:51.987Z,1012.687
2023-04-15T05:22:21.987Z,1012.696
2023-04-15T05:22:51.982Z,1012.708
2023-04-15T05:23:21.982Z,1012.683
2023-04-15T05:23:51.982Z,1012.684
2023-04-15T05:24:21.988Z,1012.712
2023-04-15T05:24:51.992Z,1012.737
2023-04-15T05:25:21.985Z,1012.729
2023-04-15T05:25:51.976Z,1012.73
2023-04-15T05:26:21.983Z,1012.727
2023-04-15T05:26:51.987Z,1012.729
2023-04-15T05:27:21.978Z,1012.713
2023-04-15T05:27:51.992Z,1012.722
2023-04-15T05:28:21.982Z,1012.696
2023-04-15T05:28:51.991Z,1012.699
2023-04-15T05:29:21.984Z,1012.697
2023-04-15T05:29:51.984Z,1012.708
2023-04-15T05:30:21.984Z,1012.712
2023-04-15T05:30:52.011Z,1012.701
2023-04-15T05:31:22.030Z,1012.692
2023-04-15T05:31:52.005Z,1012.695
2023-04-15T05:32:22.018Z,1012.695
2023-04-15T05:32:52.039Z,1012.679
2023-04-15T05:33:21.990Z,1012.695
2023-04-15T05:33:51.978Z,1012.715
2023-04-15T05:34:21.986Z,1012.732
2023-04-15T05:34:51.983Z,1012.719
2023-04-15T05:35:21.983Z,1012.69
2023-04-15T05:35:52.008Z,1012.688
2023-04-15T05:36:22.009Z,1012.724
2023-04-15T05:36:51.992Z,1012.741
2023-04-15T05:37:21.989Z,1012.75
2023-04-15T05:37:51.986Z,1012.778
2023-04-15T05:38:21.997Z,1012.785
2023-04-15T05:38:51.979Z,1012.793
2023-04-15T05:39:22.019Z,1012.801
2023-04-15T05:39:51.988Z,1012.799
2023-04-15T05:40:21.988Z,1012.78
2023-04-15T05:40:51.983Z,1012.787
2023-04-15T05:41:21.988Z,1012.797
2023-04-15T05:41:51.991Z,1012.792
2023-04-15T05:42:21.982Z,1012.812
2023-04-15T05:42:51.994Z,1012.829
2023-04-15T05:43:21.997Z,1012.832
2023-04-15T05:43:51.983Z,1012.834
2023-04-15T05:44:21.996Z,1012.842
2023-04-15T05:44:51.990Z,1012.889
2023-04-15T05:45:21.990Z,1012.938
2023-04-15T05:45:52.024Z,1012.957
2023-04-15T05:46:22.053Z,1012.971
2023-04-15T05:46:51.989Z,1012.975
2023-04-15T05:47:22.011Z,1012.949
2023-04-15T05:47:52.052Z,1012.932
2023-04-15T05:48:22.003Z,1012.899
2023-04-15T05:48:52.193Z,1012.886
2023-04-15T05:49:21.988Z,1012.872
2023-04-15T05:49:51.987Z,1012.894
2023-04-15T05:50:22.012Z,1012.9
2023-04-15T05:50:51.991Z,1012.912
2023-04-15T05:51:21.995Z,1012.906
2023-04-15T05:51:51.999Z,1012.893
2023-04-15T05:52:22.060Z,1012.894
2023-04-15T05:52:51.993Z,1012.87
2023-04-15T05:53:21.994Z,1012.899